createdAt,value
2022-09-22T00:01:37.950Z,10.79
2022-09-22T00:04:09.549Z,10.74
2022-09-22T00:06:40.999Z,10.75
2022-09-22T00:09:13.924Z,10.72
2022-09-22T00:11:44.816Z,10.62
2022-09-22T00:14:16.265Z,10.64
2022-09-22T00:16:46.734Z,10.57
2022-09-22T00:19:20.072Z,10.44
2022-09-22T00:21:49.070Z,10.54
2022-09-22T00:24:20.511Z,10.56
2022-09-22T00:26:48.523Z,10.59
2022-09-22T00:29:17.261Z,10.62
2022-09-22T00:31:46.573Z,10.67
2022-09-22T00:34:17.331Z,10.72
2022-09-22T00:36:46.142Z,10.73
2022-09-22T00:39:16.268Z,10.73
2022-09-22T00:41:49.288Z,10.68
2022-09-22T00:44:47.594Z,10.68
2022-09-22T00:47:36.557Z,10.62
2022-09-22T00:50:13.537Z,10.65
2022-09-22T00:52:48.483Z,10.65
2022-09-22T00:55:21.288Z,10.72
2022-09-22T00:57:51.558Z,10.74
2022-09-22T01:00:20.363Z,10.69
2022-09-22T01:02:51.398Z,10.68
2022-09-22T01:05:20.862Z,10.66
2022-09-22T01:07:49.725Z,10.72
2022-09-22T01:10:18.439Z,10.69
2022-09-22T01:12:58.610Z,10.73
2022-09-22T01:15:38.136Z,10.79
2022-09-22T01:18:20.459Z,10.73
2022-09-22T01:21:30.243Z,10.68
2022-09-22T01:24:47.324Z,10.61
2022-09-22T01:27:59.999Z,10.56
2022-09-22T01:30:37.869Z,10.50
2022-09-22T01:33:43.137Z,10.47
2022-09-22T01:36:25.399Z,10.41
2022-09-22T01:39:06.011Z,10.37
2022-09-22T01:41:54.700Z,10.37
2022-09-22T01:44:30.027Z,10.26
2022-09-22T01:47:05.645Z,10.13
2022-09-22T01:49:38.507Z,10.08
2022-09-22T01:52:12.936Z,10.03
2022-09-22T01:54:47.269Z,10.02
2022-09-22T01:57:21.845Z,10.04
2022-09-22T01:59:57.194Z,10.01
2022-09-22T02:02:32.810Z,9.91
2022-09-22T02:05:06.749Z,9.91
2022-09-22T02:07:39.740Z,9.75
2022-09-22T02:10:13.619Z,9.72
2022-09-22T02:12:41.797Z,9.74
2022-09-22T02:15:31.990Z,9.79
2022-09-22T02:18:08.130Z,9.74
2022-09-22T02:20:36.432Z,9.72
2022-09-22T02:23:04.532Z,9.73
2022-09-22T02:25:32.865Z,9.70
2022-09-22T02:28:01.553Z,9.66
2022-09-22T02:30:30.111Z,9.63
2022-09-22T02:33:00.144Z,9.59
2022-09-22T02:35:32.998Z,9.63
2022-09-22T02:38:07.013Z,9.57
2022-09-22T02:40:46.340Z,9.58
2022-09-22T02:43:22.563Z,9.47
2022-09-22T02:45:57.714Z,9.49
2022-09-22T02:48:28.467Z,9.52
2022-09-22T02:50:58.425Z,9.51
2022-09-22T02:53:26.462Z,9.54
2022-09-22T02:55:54.702Z,9.50
2022-09-22T02:58:22.667Z,9.54
2022-09-22T03:00:50.772Z,9.55
2022-09-22T03:03:18.804Z,9.52
2022-09-22T03:05:46.832Z,9.56
2022-09-22T03:08:16.169Z,9.50
2022-09-22T03:10:44.244Z,9.47
2022-09-22T03:13:17.080Z,9.46
2022-09-22T03:15:47.126Z,9.56
2022-09-22T03:18:15.452Z,9.54
2022-09-22T03:20:43.595Z,9.54
2022-09-22T03:23:11.874Z,9.53
2022-09-22T03:25:41.464Z,9.53
2022-09-22T03:28:09.523Z,9.53
2022-09-22T03:30:40.273Z,9.53
2022-09-22T03:33:08.427Z,9.48
2022-09-22T03:35:36.408Z,9.45
2022-09-22T03:38:04.563Z,9.39
2022-09-22T03:40:33.040Z,9.35
2022-09-22T03:43:02.506Z,9.33
2022-09-22T03:45:30.518Z,9.27
2022-09-22T03:47:58.975Z,9.28
2022-09-22T03:50:28.341Z,9.26
2022-09-22T03:52:57.867Z,9.27
2022-09-22T03:55:25.865Z,9.33
2022-09-22T03:57:53.901Z,9.28
2022-09-22T04:00:23.237Z,9.24
2022-09-22T04:02:51.406Z,9.22
2022-09-22T04:05:21.371Z,9.22
2022-09-22T04:07:49.341Z,9.23
2022-09-22T04:10:17.551Z,9.22
2022-09-22T04:12:45.578Z,9.16
2022-09-22T04:15:13.799Z,9.18
2022-09-22T04:17:43.164Z,9.21
2022-09-22T04:20:12.068Z,9.30
2022-09-22T04:22:40.441Z,9.28
2022-09-22T04:25:10.622Z,9.24
2022-09-22T04:27:38.591Z,9.24
2022-09-22T04:30:09.447Z,9.24
2022-09-22T04:32:37.476Z,9.23
2022-09-22T04:35:09.443Z,9.22
2022-09-22T04:37:37.408Z,9.18
2022-09-22T04:40:06.567Z,9.22
2022-09-22T04:42:34.590Z,9.27
2022-09-22T04:45:02.991Z,9.20
2022-09-22T04:47:31.403Z,9.19
2022-09-22T04:49:59.731Z,9.16
2022-09-22T04:52:29.094Z,9.13
2022-09-22T04:54:57.111Z,9.14
2022-09-22T04:57:25.282Z,9.08
2022-09-22T04:59:53.310Z,9.07
2022-09-22T05:02:21.315Z,9.09
2022-09-22T05:04:49.447Z,9.10
2022-09-22T05:07:17.439Z,9.16
2022-09-22T05:09:47.619Z,9.13
2022-09-22T05:12:15.637Z,9.09
2022-09-22T05:14:43.672Z,9.05
2022-09-22T05:17:11.739Z,9.11
2022-09-22T05:19:39.808Z,9.09
2022-09-22T05:22:07.844Z,9.11
2022-09-22T05:24:35.915Z,9.08
2022-09-22T05:27:05.877Z,9.01
2022-09-22T05:29:33.878Z,9.01
2022-09-22T05:32:02.881Z,9.03
2022-09-22T05:34:30.959Z,9.06
2022-09-22T05:36:58.962Z,9.02
2022-09-22T05:39:26.974Z,9.02
2022-09-22T05:41:54.985Z,9.00
2022-09-22T05:44:24.613Z,9.07
2022-09-22T05:46:52.696Z,9.08
2022-09-22T05:49:20.699Z,9.10
2022-09-22T05:51:48.708Z,9.14
2022-09-22T05:54:21.241Z,9.10
2022-09-22T05:56:51.191Z,9.16
2022-09-22T05:59:19.380Z,9.30
2022-09-22T06:01:48.903Z,9.30
2022-09-22T06:04:17.047Z,9.37
2022-09-22T06:06:45.055Z,9.39
2022-09-22T06:09:13.080Z,9.46
2022-09-22T06:11:41.056Z,9.55
2022-09-22T06:14:09.061Z,9.57
2022-09-22T06:16:37.098Z,9.66
2022-09-22T06:19:06.732Z,9.70
2022-09-22T06:21:35.097Z,9.79
2022-09-22T06:24:03.607Z,9.86
2022-09-22T06:26:31.773Z,9.83
2022-09-22T06:28:59.767Z,9.80
2022-09-22T06:31:27.817Z,9.90
2022-09-22T06:33:56.282Z,10.01
2022-09-22T06:36:31.492Z,10.10
2022-09-22T06:39:00.102Z,10.12
2022-09-22T06:41:29.715Z,10.24
2022-09-22T06:44:08.184Z,10.29
2022-09-22T06:46:36.572Z,10.34
2022-09-22T06:49:04.593Z,10.42
2022-09-22T06:51:35.950Z,10.48
2022-09-22T06:54:07.074Z,10.60
2022-09-22T06:56:39.780Z,10.66
2022-09-22T06:59:10.952Z,10.67
2022-09-22T07:01:40.229Z,10.73
2022-09-22T07:04:09.201Z,10.83
2022-09-22T07:06:40.519Z,10.99
2022-09-22T07:09:09.150Z,11.04
2022-09-22T07:11:40.018Z,11.12
2022-09-22T07:14:10.184Z,11.14
2022-09-22T07:16:39.935Z,11.23
2022-09-22T07:19:08.264Z,11.33
2022-09-22T07:21:37.669Z,11.42
2022-09-22T07:24:08.343Z,11.65
2022-09-22T07:26:39.075Z,11.75
2022-09-22T07:29:13.116Z,11.80
2022-09-22T07:31:41.805Z,11.90
2022-09-22T07:34:10.652Z,11.93
2022-09-22T07:36:40.866Z,12.08
2022-09-22T07:39:11.454Z,12.17
2022-09-22T07:41:43.633Z,12.36
2022-09-22T07:44:32.055Z,12.49
2022-09-22T07:47:00.938Z,12.65
2022-09-22T07:49:30.589Z,12.76
2022-09-22T07:51:59.935Z,12.90
2022-09-22T07:54:28.655Z,12.94
2022-09-22T07:56:58.409Z,13.05
2022-09-22T07:59:27.647Z,13.19
2022-09-22T08:01:56.020Z,13.27
2022-09-22T08:04:26.430Z,13.38
2022-09-22T08:06:56.490Z,13.51
2022-09-22T08:09:28.158Z,13.66
2022-09-22T08:11:57.058Z,13.81
2022-09-22T08:14:25.261Z,13.94
2022-09-22T08:16:54.251Z,13.98
2022-09-22T08:19:24.472Z,14.05
2022-09-22T08:21:54.795Z,14.08
2022-09-22T08:24:23.931Z,14.23
2022-09-22T08:26:56.090Z,14.45
2022-09-22T08:29:24.710Z,14.59
2022-09-22T08:31:53.980Z,14.69
2022-09-22T08:34:22.628Z,14.63
2022-09-22T08:36:50.635Z,14.72
2022-09-22T08:39:20.015Z,14.76
2022-09-22T08:42:07.963Z,14.87
2022-09-22T08:44:42.250Z,15.03
2022-09-22T08:47:38.978Z,15.28
2022-09-22T08:50:55.842Z,15.47
2022-09-22T08:53:23.917Z,15.42
2022-09-22T08:56:05.246Z,15.52
2022-09-22T08:58:44.545Z,15.61
2022-09-22T09:01:30.772Z,15.69
2022-09-22T09:04:32.232Z,15.89
2022-09-22T09:07:10.305Z,16.12
2022-09-22T09:09:53.759Z,16.35
2022-09-22T09:13:05.039Z,16.36
2022-09-22T09:15:51.127Z,16.46
2022-09-22T09:18:26.198Z,16.54
2022-09-22T09:20:55.322Z,16.71
2022-09-22T09:26:20.063Z,17.08
2022-09-22T09:28:53.470Z,17.28
2022-09-22T09:31:34.301Z,17.26
2022-09-22T09:34:06.073Z,17.04
2022-09-22T09:36:38.985Z,17.14
2022-09-22T09:39:15.945Z,17.27
2022-09-22T09:41:47.791Z,17.29
2022-09-22T09:44:25.530Z,17.24
2022-09-22T09:47:03.377Z,17.20
2022-09-22T09:49:31.801Z,17.22
2022-09-22T09:52:03.093Z,17.40
2022-09-22T09:54:31.099Z,17.38
2022-09-22T09:57:06.223Z,17.43
2022-09-22T09:59:53.099Z,17.39
2022-09-22T10:02:27.373Z,17.51
2022-09-22T10:04:58.473Z,17.70
2022-09-22T10:10:32.380Z,18.09
2022-09-22T10:13:32.615Z,18.34
2022-09-22T10:16:21.112Z,18.53
2022-09-22T10:18:52.410Z,18.64
2022-09-22T10:21:23.396Z,18.84
2022-09-22T10:23:53.433Z,18.90
2022-09-22T10:26:26.383Z,19.06
2022-09-22T10:29:18.976Z,19.18
2022-09-22T10:32:14.833Z,19.27
2022-09-22T10:37:26.354Z,19.21
2022-09-22T10:39:57.335Z,19.17
2022-09-22T10:42:36.945Z,19.18
2022-09-22T10:45:11.140Z,19.26
2022-09-22T10:47:57.197Z,19.19
2022-09-22T10:50:42.504Z,19.36
2022-09-22T10:53:31.952Z,19.28
2022-09-22T10:56:13.035Z,19.06
2022-09-22T10:59:15.744Z,19.00
2022-09-22T11:01:57.891Z,19.12
2022-09-22T11:04:42.812Z,19.18
2022-09-22T11:07:52.162Z,19.13
2022-09-22T11:10:50.213Z,19.14
2022-09-22T11:13:34.318Z,19.44
2022-09-22T11:16:34.210Z,19.61
2022-09-22T11:19:29.483Z,19.79
2022-09-22T11:22:22.209Z,19.73
2022-09-22T11:25:07.178Z,19.50
2022-09-22T11:27:54.487Z,19.43
2022-09-22T11:30:24.085Z,19.53
2022-09-22T11:33:22.734Z,19.58
2022-09-22T11:36:01.444Z,19.66
2022-09-22T11:39:01.935Z,19.65
2022-09-22T11:41:45.227Z,19.75
2022-09-22T11:44:41.767Z,19.78
2022-09-22T11:47:59.615Z,19.87
2022-09-22T11:50:51.598Z,19.68
2022-09-22T11:53:35.044Z,19.62
2022-09-22T11:56:28.256Z,19.62
2022-09-22T11:59:05.280Z,19.39
2022-09-22T12:01:40.191Z,19.25
2022-09-22T12:04:21.354Z,19.30
2022-09-22T12:06:56.774Z,19.44
2022-09-22T12:09:38.830Z,19.47
2022-09-22T12:12:13.194Z,19.65
2022-09-22T12:14:43.523Z,19.77
2022-09-22T12:17:21.439Z,19.90
2022-09-22T12:20:08.240Z,19.85
2022-09-22T12:22:57.854Z,19.84
2022-09-22T12:25:49.708Z,19.79
2022-09-22T12:28:25.698Z,19.70
2022-09-22T12:31:05.844Z,19.71
2022-09-22T12:33:38.024Z,19.75
2022-09-22T12:36:07.800Z,19.78
2022-09-22T12:38:36.119Z,19.83
2022-09-22T12:41:05.005Z,19.83
2022-09-22T12:43:35.789Z,19.88
2022-09-22T12:46:21.898Z,19.90
2022-09-22T12:48:50.129Z,19.94
2022-09-22T12:51:34.390Z,19.99
2022-09-22T12:54:39.906Z,19.94
2022-09-22T12:57:45.642Z,20.02
2022-09-22T13:00:36.554Z,19.96
2022-09-22T13:06:02.802Z,20.01
2022-09-22T13:09:21.318Z,19.92
2022-09-22T13:12:28.073Z,19.92
2022-09-22T13:15:19.628Z,20.01
2022-09-22T13:17:49.392Z,20.04
2022-09-22T13:20:27.108Z,20.08
2022-09-22T13:23:05.781Z,19.97
2022-09-22T13:25:35.004Z,19.95
2022-09-22T13:28:14.435Z,19.95
2022-09-22T13:30:45.002Z,19.87
2022-09-22T13:33:22.571Z,19.84
2022-09-22T13:35:59.783Z,19.85
2022-09-22T13:38:29.604Z,19.80
2022-09-22T13:40:57.757Z,19.66
2022-09-22T13:43:34.819Z,19.54
2022-09-22T13:46:04.808Z,19.49
2022-09-22T13:48:36.630Z,19.55
2022-09-22T13:51:09.030Z,19.47
2022-09-22T13:53:39.383Z,19.43
2022-09-22T13:56:21.418Z,19.32
2022-09-22T13:58:52.653Z,19.44
2022-09-22T14:01:25.006Z,19.55
2022-09-22T14:03:54.406Z,19.54
2022-09-22T14:06:25.301Z,19.47
2022-09-22T14:08:55.964Z,19.37
2022-09-22T14:11:28.202Z,19.31
2022-09-22T14:14:01.887Z,19.38
2022-09-22T14:16:35.781Z,19.43
2022-09-22T14:19:08.464Z,19.51
2022-09-22T14:21:45.881Z,19.57
2022-09-22T14:24:15.754Z,19.57
2022-09-22T14:26:47.976Z,19.59
2022-09-22T14:29:24.647Z,19.62
2022-09-22T14:31:57.466Z,19.66
2022-09-22T14:34:31.143Z,19.64
2022-09-22T14:37:05.904Z,19.59
2022-09-22T14:39:35.280Z,19.56
2022-09-22T14:42:17.338Z,19.58
2022-09-22T14:44:48.331Z,19.65
2022-09-22T14:47:26.945Z,19.72
2022-09-22T14:50:14.314Z,19.67
2022-09-22T14:52:52.687Z,19.64
2022-09-22T14:55:31.369Z,19.60
2022-09-22T14:58:05.428Z,19.62
2022-09-22T15:00:52.079Z,19.55
2022-09-22T15:03:25.688Z,19.50
2022-09-22T15:05:54.234Z,19.41
2022-09-22T15:08:27.784Z,19.45
2022-09-22T15:10:59.691Z,19.31
2022-09-22T15:13:32.425Z,19.30
2022-09-22T15:16:00.687Z,19.27
2022-09-22T15:18:30.945Z,19.35
2022-09-22T15:21:06.079Z,19.38
2022-09-22T15:23:40.945Z,19.39
2022-09-22T15:26:21.714Z,19.40
2022-09-22T15:28:54.574Z,19.32
2022-09-22T15:31:27.242Z,19.29
2022-09-22T15:33:56.228Z,19.28
2022-09-22T15:36:25.676Z,19.32
2022-09-22T15:38:59.571Z,19.26
2022-09-22T15:41:29.029Z,19.26
2022-09-22T15:43:57.465Z,19.22
2022-09-22T15:46:33.712Z,19.23
2022-09-22T15:49:08.824Z,19.26
2022-09-22T15:51:36.875Z,19.28
2022-09-22T15:54:11.242Z,19.29
2022-09-22T15:56:41.293Z,19.21
2022-09-22T15:59:17.955Z,19.22
2022-09-22T16:01:46.163Z,19.18
2022-09-22T16:04:14.346Z,19.09
2022-09-22T16:06:48.059Z,19.09
2022-09-22T16:09:18.233Z,19.07
2022-09-22T16:11:48.435Z,19.02
2022-09-22T16:14:16.661Z,19.01
2022-09-22T16:16:45.220Z,18.98
2022-09-22T16:19:13.217Z,18.96
2022-09-22T16:21:52.692Z,18.95
2022-09-22T16:24:22.616Z,18.88
2022-09-22T16:26:52.569Z,18.87
2022-09-22T16:29:20.662Z,18.86
2022-09-22T16:31:49.270Z,18.84
2022-09-22T16:34:17.335Z,18.82
2022-09-22T16:36:46.191Z,18.76
2022-09-22T16:39:14.379Z,18.71
2022-09-22T16:41:47.070Z,18.69
2022-09-22T16:44:16.812Z,18.66
2022-09-22T16:46:45.005Z,18.63
2022-09-22T16:49:16.268Z,18.61
2022-09-22T16:51:49.178Z,18.58
2022-09-22T16:54:18.552Z,18.55
2022-09-22T16:56:49.519Z,18.53
2022-09-22T16:59:21.243Z,18.48
2022-09-22T17:01:49.964Z,18.43
2022-09-22T17:04:19.410Z,18.39
2022-09-22T17:06:48.044Z,18.31
2022-09-22T17:09:16.939Z,18.24
2022-09-22T17:11:47.815Z,18.19
2022-09-22T17:14:21.038Z,18.13
2022-09-22T17:16:51.900Z,18.08
2022-09-22T17:19:21.813Z,18.01
2022-09-22T17:21:51.934Z,17.99
2022-09-22T17:24:20.803Z,17.88
2022-09-22T17:26:52.076Z,17.81
2022-09-22T17:29:24.682Z,17.64
2022-09-22T17:31:56.437Z,17.53
2022-09-22T17:34:25.088Z,17.36
2022-09-22T17:36:55.328Z,17.20
2022-09-22T17:39:24.292Z,17.04
2022-09-22T17:41:52.828Z,16.98
2022-09-22T17:44:23.115Z,16.99
2022-09-22T17:47:10.940Z,16.94
2022-09-22T17:49:57.407Z,16.87
2022-09-22T17:52:43.910Z,16.80
2022-09-22T17:55:21.767Z,16.75
2022-09-22T17:57:52.673Z,16.76
2022-09-22T18:00:24.438Z,16.79
2022-09-22T18:02:54.216Z,16.74
2022-09-22T18:05:26.590Z,16.72
2022-09-22T18:07:58.212Z,16.60
2022-09-22T18:10:32.351Z,16.56
2022-09-22T18:13:01.438Z,16.48
2022-09-22T18:15:30.808Z,16.42
2022-09-22T18:17:58.923Z,16.39
2022-09-22T18:20:27.771Z,16.35
2022-09-22T18:22:57.763Z,16.33
2022-09-22T18:25:49.899Z,16.32
2022-09-22T18:28:23.947Z,16.29
2022-09-22T18:30:54.285Z,16.30
2022-09-22T18:33:22.806Z,16.28
2022-09-22T18:35:50.808Z,16.24
2022-09-22T18:38:19.728Z,16.20
2022-09-22T18:40:51.427Z,16.17
2022-09-22T18:43:19.499Z,16.05
2022-09-22T18:45:47.642Z,15.93
2022-09-22T18:48:18.265Z,15.91
2022-09-22T18:50:47.131Z,15.84
2022-09-22T18:53:17.891Z,15.80
2022-09-22T18:55:47.334Z,15.89
2022-09-22T18:58:15.341Z,15.92
2022-09-22T19:00:44.312Z,15.83
2022-09-22T19:03:13.143Z,15.83
2022-09-22T19:05:42.440Z,15.81
2022-09-22T19:08:11.206Z,15.89
2022-09-22T19:10:39.205Z,16.00
2022-09-22T19:13:07.725Z,15.91
2022-09-22T19:15:36.509Z,15.90
2022-09-22T19:18:04.872Z,15.84
2022-09-22T19:20:32.886Z,15.76
2022-09-22T19:23:03.659Z,15.65
2022-09-22T19:25:32.198Z,15.70
2022-09-22T19:28:01.592Z,15.73
2022-09-22T19:30:31.468Z,15.72
2022-09-22T19:33:00.385Z,15.73
2022-09-22T19:35:29.421Z,15.68
2022-09-22T19:37:57.483Z,15.68
2022-09-22T19:40:26.891Z,15.61
2022-09-22T19:42:55.568Z,15.50
2022-09-22T19:45:24.934Z,15.47
2022-09-22T19:47:56.202Z,15.37
2022-09-22T19:50:25.398Z,15.26
2022-09-22T19:52:53.451Z,15.20
2022-09-22T19:55:22.003Z,15.13
2022-09-22T19:57:52.437Z,15.10
2022-09-22T20:00:25.794Z,15.08
2022-09-22T20:02:58.355Z,14.99
2022-09-22T20:05:30.188Z,14.81
2022-09-22T20:07:58.278Z,14.72
2022-09-22T20:10:26.739Z,14.77
2022-09-22T20:12:56.613Z,14.72
2022-09-22T20:15:25.180Z,14.70
2022-09-22T20:17:54.077Z,14.71
2022-09-22T20:20:25.159Z,14.78
2022-09-22T20:23:00.358Z,14.69
2022-09-22T20:25:31.378Z,14.63
2022-09-22T20:28:00.981Z,14.51
2022-09-22T20:30:29.006Z,14.47
2022-09-22T20:32:57.073Z,14.41
2022-09-22T20:35:25.248Z,14.35
2022-09-22T20:37:59.211Z,14.28
2022-09-22T20:40:27.855Z,14.16
2022-09-22T20:42:55.878Z,14.12
2022-09-22T20:45:26.233Z,14.17
2022-09-22T20:47:56.034Z,14.06
2022-09-22T20:50:24.062Z,14.02
2022-09-22T20:52:52.069Z,13.96
2022-09-22T20:55:20.334Z,13.96
2022-09-22T20:57:48.354Z,13.98
2022-09-22T21:00:16.753Z,13.80
2022-09-22T21:02:47.273Z,13.80
2022-09-22T21:05:15.634Z,13.79
2022-09-22T21:07:43.619Z,13.74
2022-09-22T21:10:29.217Z,13.69
2022-09-22T21:12:57.577Z,13.60
2022-09-22T21:15:25.658Z,13.54
2022-09-22T21:17:54.976Z,13.59
2022-09-22T21:20:23.166Z,13.49
2022-09-22T21:22:52.496Z,13.47
2022-09-22T21:25:20.628Z,13.41
2022-09-22T21:27:48.630Z,13.33
2022-09-22T21:30:16.803Z,13.27
2022-09-22T21:32:45.001Z,13.23
2022-09-22T21:35:16.709Z,13.05
2022-09-22T21:37:45.043Z,13.09
2022-09-22T21:40:13.318Z,13.14
2022-09-22T21:42:41.411Z,13.14
2022-09-22T21:45:10.613Z,13.15
2022-09-22T21:47:38.611Z,13.07
2022-09-22T21:50:08.200Z,13.09
2022-09-22T21:52:38.439Z,13.11
2022-09-22T21:55:07.943Z,13.14
2022-09-22T21:57:36.167Z,13.08
2022-09-22T22:00:07.653Z,13.05
2022-09-22T22:02:54.089Z,13.04
2022-09-22T22:05:22.115Z,12.99
2022-09-22T22:07:51.498Z,13.02
2022-09-22T22:10:19.594Z,13.05
2022-09-22T22:12:47.724Z,13.03
2022-09-22T22:15:16.023Z,12.89
2022-09-22T22:17:44.017Z,12.90
2022-09-22T22:20:12.083Z,12.96
2022-09-22T22:22:40.123Z,12.96
2022-09-22T22:25:18.354Z,12.78
2022-09-22T22:27:46.526Z,12.81
2022-09-22T22:30:14.655Z,12.79
2022-09-22T22:32:43.004Z,12.81
2022-09-22T22:35:11.567Z,12.80
2022-09-22T22:37:39.875Z,12.85
2022-09-22T22:40:10.520Z,12.80
2022-09-22T22:42:38.559Z,12.81
2022-09-22T22:45:07.475Z,12.83
2022-09-22T22:47:35.434Z,12.79
2022-09-22T22:50:03.468Z,12.71
2022-09-22T22:52:31.476Z,12.78
2022-09-22T22:54:59.536Z,12.79
2022-09-22T22:57:28.905Z,12.77
2022-09-22T22:59:57.948Z,12.68
2022-09-22T23:02:26.145Z,12.64
2022-09-22T23:04:54.197Z,12.66
2022-09-22T23:07:22.426Z,12.61
2022-09-22T23:10:05.950Z,12.60
2022-09-22T23:12:36.064Z,12.66
2022-09-22T23:15:04.807Z,12.60
2022-09-22T23:17:33.285Z,12.63
2022-09-22T23:20:01.265Z,12.60
2022-09-22T23:22:30.518Z,12.57
2022-09-22T23:24:58.562Z,12.58
2022-09-22T23:27:27.167Z,12.63
2022-09-22T23:29:57.244Z,12.59
2022-09-22T23:32:25.568Z,12.54
2022-09-22T23:34:53.685Z,12.54
2022-09-22T23:37:24.705Z,12.49
2022-09-22T23:39:53.178Z,12.46
2022-09-22T23:42:21.479Z,12.45
2022-09-22T23:44:49.484Z,12.44
2022-09-22T23:47:18.955Z,12.42
2022-09-22T23:49:47.428Z,12.42
2022-09-22T23:52:15.378Z,12.42
2022-09-22T23:54:44.656Z,12.43
2022-09-22T23:57:12.706Z,12.46
2022-09-22T23:59:40.690Z,12.39
